Time;durP1;ratioP1;P1;durP2;ratioP2;P2;SDS_P1;SDS_P2;PMS_P1;PMS_P2;Temp;Humidity;BMP_temperature;BMP_pressure;BME280_temperature;BME280_humidity;BME280_pressure;Samples;Min_cycle;Max_cycle;Signal;HPM_P1;HPM_P2
2023/09/15 00:01:00;;;;;;;23.50;22.50;;;;;;;10.73;100.00;102291.88;4972428;28;20493;-41
2023/09/15 00:03:28;;;;;;;24.40;23.43;;;;;;;10.73;100.00;102302.56;4972557;28;20435;-43
2023/09/15 00:05:57;;;;;;;23.20;22.30;;;;;;;10.71;100.00;102299.22;4972723;28;20435;-43
2023/09/15 00:08:26;;;;;;;24.33;23.23;;;;;;;10.70;100.00;102289.53;4972677;28;20523;-42
2023/09/15 00:10:54;;;;;;;26.23;24.33;;;;;;;10.69;100.00;102290.53;4972302;28;20463;-41
2023/09/15 00:13:22;;;;;;;24.37;23.27;;;;;;;10.67;100.00;102295.19;4972436;28;20459;-45
2023/09/15 00:15:51;;;;;;;26.17;25.27;;;;;;;10.70;100.00;102302.88;4972623;28;20434;-46
2023/09/15 00:18:19;;;;;;;26.03;25.10;;;;;;;10.70;100.00;102302.88;4972400;28;20557;-42
2023/09/15 00:20:47;;;;;;;25.27;24.37;;;;;;;10.71;100.00;102293.88;4964475;28;20458;-44
2023/09/15 00:23:17;;;;;;;26.77;25.30;;;;;;;10.71;100.00;102297.38;4972715;28;20513;-45
2023/09/15 00:25:45;;;;;;;25.97;24.97;;;;;;;10.72;100.00;102301.72;4972537;28;20427;-46
2023/09/15 00:28:13;;;;;;;27.00;25.87;;;;;;;10.71;100.00;102305.41;4976707;28;20866;-42
2023/09/15 00:30:41;;;;;;;25.17;24.13;;;;;;;10.69;100.00;102304.72;4971584;28;20462;-46
2023/09/15 00:33:08;;;;;;;26.07;25.07;;;;;;;10.68;100.00;102307.53;4972729;28;20509;-45
2023/09/15 00:35:36;;;;;;;27.27;25.87;;;;;;;10.65;100.00;102298.03;4972645;28;20439;-41
2023/09/15 00:38:04;;;;;;;25.40;24.50;;;;;;;10.62;100.00;102292.16;4974360;28;20514;-46
2023/09/15 00:40:33;;;;;;;25.87;24.67;;;;;;;10.59;100.00;102298.66;4975721;28;20881;-42
2023/09/15 00:43:00;;;;;;;26.20;25.10;;;;;;;10.59;100.00;102295.16;4976342;28;20466;-43
2023/09/15 00:45:28;;;;;;;26.70;25.70;;;;;;;10.56;100.00;102296.31;4976446;28;20454;-40
2023/09/15 00:47:57;;;;;;;25.77;24.77;;;;;;;10.51;100.00;102291.44;4976181;28;20542;-44
2023/09/15 00:50:28;;;;;;;26.00;24.83;;;;;;;10.47;100.00;102298.09;4975575;28;20513;-42
2023/09/15 00:53:00;;;;;;;25.27;24.27;;;;;;;10.44;100.00;102293.09;4976383;28;20518;-41
2023/09/15 00:55:29;;;;;;;26.40;25.27;;;;;;;10.40;100.00;102294.38;4976282;28;20482;-44
2023/09/15 00:58:02;;;;;;;27.13;26.17;;;;;;;10.37;100.00;102280.53;4976122;28;20458;-47
2023/09/15 01:00:30;;;;;;;26.57;25.37;;;;;;;10.34;100.00;102289.69;4975597;28;20454;-41
2023/09/15 01:02:58;;;;;;;26.70;25.60;;;;;;;10.32;100.00;102283.69;4975941;28;20526;-45
2023/09/15 01:05:28;;;;;;;24.93;24.03;;;;;;;10.29;100.00;102284.00;4975862;28;20434;-40
2023/09/15 01:07:56;;;;;;;26.70;25.50;;;;;;;10.28;100.00;102289.47;4975801;28;20463;-41
2023/09/15 01:10:24;;;;;;;26.20;25.30;;;;;;;10.25;100.00;102282.63;4975010;28;20478;-48
2023/09/15 01:12:54;;;;;;;26.20;25.23;;;;;;;10.27;100.00;102279.81;4975992;28;20786;-42
2023/09/15 01:15:29;;;;;;;27.33;26.23;;;;;;;10.25;100.00;102277.28;4975723;28;20436;-43
2023/09/15 01:18:05;;;;;;;26.77;25.73;;;;;;;10.24;100.00;102275.63;4968669;28;20473;-43
2023/09/15 01:20:55;;;;;;;26.40;25.40;;;;;;;10.22;100.00;102263.44;4974773;28;20505;-42
2023/09/15 01:23:43;;;;;;;26.60;25.60;;;;;;;10.20;100.00;102262.75;4975684;28;20470;-44
2023/09/15 01:26:25;;;;;;;27.63;26.53;;;;;;;10.19;100.00;102266.41;4979168;28;20441;-44
2023/09/15 01:29:19;;;;;;;26.87;25.87;;;;;;;10.15;100.00;102270.41;4967707;28;20526;-48
2023/09/15 01:31:48;;;;;;;26.50;25.60;;;;;;;10.14;100.00;102269.56;4975047;28;20875;-40
2023/09/15 01:34:17;;;;;;;27.77;26.57;;;;;;;10.15;100.00;102265.91;4975700;28;20907;-43
2023/09/15 01:36:45;;;;;;;29.40;28.30;;;;;;;10.15;100.00;102273.06;4975215;28;20513;-43
2023/09/15 01:39:12;;;;;;;27.27;26.10;;;;;;;10.15;100.00;102279.25;4974846;28;20485;-42
2023/09/15 01:41:40;;;;;;;26.77;25.67;;;;;;;10.14;100.00;102266.91;4974659;28;20517;-44
2023/09/15 01:44:08;;;;;;;26.70;25.50;;;;;;;10.14;100.00;102268.72;4975279;28;20439;-42
2023/09/15 01:46:36;;;;;;;28.50;27.50;;;;;;;10.15;100.00;102279.25;4975187;28;20434;-40
2023/09/15 01:49:05;;;;;;;29.10;27.87;;;;;;;10.15;100.00;102273.91;4973752;28;20431;-42
2023/09/15 01:51:34;;;;;;;27.47;26.37;;;;;;;10.11;100.00;102272.50;4974862;28;20916;-41
2023/09/15 01:54:02;;;;;;;29.97;28.93;;;;;;;10.11;100.00;102263.66;4975029;28;20482;-41
2023/09/15 01:56:30;;;;;;;29.47;28.47;;;;;;;10.10;100.00;102264.66;4974680;28;21009;-42
2023/09/15 01:58:57;;;;;;;29.87;28.87;;;;;;;10.09;100.00;102260.31;4974760;28;20568;-43
2023/09/15 02:01:25;;;;;;;29.47;28.47;;;;;;;10.08;100.00;102258.66;4974477;28;20611;-41
2023/09/15 02:03:53;;;;;;;28.57;27.67;;;;;;;10.07;100.00;102267.63;4974953;28;20441;-43
2023/09/15 02:06:22;;;;;;;28.67;27.57;;;;;;;10.05;100.00;102265.13;4974792;28;20510;-43
2023/09/15 02:08:50;;;;;;;29.53;28.13;;;;;;;10.01;100.00;102267.25;4974385;28;20431;-41
2023/09/15 02:11:18;;;;;;;28.97;27.97;;;;;;;10.02;100.00;102268.94;4974512;28;20889;-43
2023/09/15 02:13:46;;;;;;;28.40;27.27;;;;;;;10.02;100.00;102266.28;4974626;28;20942;-41
2023/09/15 02:16:13;;;;;;;28.60;27.50;;;;;;;9.99;100.00;102268.41;4974653;28;20525;-44
2023/09/15 02:18:41;;;;;;;30.47;29.37;;;;;;;9.97;100.00;102265.09;4974119;28;20459;-44
2023/09/15 02:21:09;;;;;;;30.30;29.23;;;;;;;9.91;100.00;102258.56;4973890;28;20533;-41
2023/09/15 02:23:38;;;;;;;28.30;27.20;;;;;;;9.88;100.00;102263.34;4974662;28;20435;-39
2023/09/15 02:26:06;;;;;;;29.10;28.10;;;;;;;9.84;100.00;102254.81;4977268;28;20444;-40
2023/09/15 02:28:34;;;;;;;29.70;28.63;;;;;;;9.83;100.00;102257.63;4976381;28;20549;-40
2023/09/15 02:31:04;;;;;;;28.97;27.97;;;;;;;9.80;100.00;102261.44;4973668;28;21065;-42
2023/09/15 02:33:33;;;;;;;31.50;30.30;;;;;;;9.81;100.00;102251.63;4974124;28;20918;-40
2023/09/15 02:36:01;;;;;;;28.00;27.00;;;;;;;9.82;100.00;102262.16;4974530;28;20509;-40
2023/09/15 02:38:28;;;;;;;29.30;28.20;;;;;;;9.80;100.00;102258.78;4974086;28;20463;-43
2023/09/15 02:40:58;;;;;;;30.27;29.07;;;;;;;9.80;100.00;102256.13;4973647;28;20473;-40
2023/09/15 02:43:25;;;;;;;28.90;27.50;;;;;;;9.78;100.00;102251.94;4974246;28;20502;-40
2023/09/15 02:45:53;;;;;;;29.90;28.80;;;;;;;9.74;100.00;102261.22;4974214;28;20818;-43
2023/09/15 02:48:21;;;;;;;30.80;29.60;;;;;;;9.73;100.00;102255.06;4973809;28;20462;-39
2023/09/15 02:50:49;;;;;;;30.07;28.47;;;;;;;9.66;100.00;102254.00;4973551;28;20459;-40
2023/09/15 02:53:17;;;;;;;32.40;31.30;;;;;;;9.64;100.00;102264.00;4974148;28;20856;-43
2023/09/15 02:55:55;;;;;;;29.23;28.23;;;;;;;9.64;100.00;102252.50;4973940;28;20457;-40
2023/09/15 02:58:24;;;;;;;30.83;29.73;;;;;;;9.63;100.00;102248.16;4973583;28;21044;-40
2023/09/15 03:00:52;;;;;;;31.33;30.00;;;;;;;9.61;100.00;102253.63;4972764;28;20492;-41
2023/09/15 03:03:24;;;;;;;32.63;31.50;;;;;;;9.59;100.00;102244.13;4974113;28;20530;-42
2023/09/15 03:06:03;;;;;;;31.40;30.20;;;;;;;9.57;100.00;102254.94;4973691;28;21005;-40
2023/09/15 03:08:31;;;;;;;29.90;28.90;;;;;;;9.53;100.00;102250.88;4973399;28;20462;-40
2023/09/15 03:10:58;;;;;;;31.97;30.77;;;;;;;9.53;100.00;102258.06;4973283;28;20459;-40
2023/09/15 03:13:27;;;;;;;30.53;29.53;;;;;;;9.53;100.00;102253.56;4973837;28;20531;-42
2023/09/15 03:15:55;;;;;;;30.60;29.40;;;;;;;9.53;100.00;102247.41;4973546;28;20435;-40
2023/09/15 03:18:23;;;;;;;31.13;30.00;;;;;;;9.53;100.00;102240.22;4973283;28;20546;-44
2023/09/15 03:20:50;;;;;;;30.67;29.57;;;;;;;9.52;100.00;102243.91;4972736;28;20470;-41
2023/09/15 03:23:18;;;;;;;30.70;29.70;;;;;;;9.53;100.00;102239.44;4973224;28;20478;-41
2023/09/15 03:25:46;;;;;;;31.37;30.37;;;;;;;9.54;100.00;102238.41;4973446;28;20441;-43
2023/09/15 03:28:14;;;;;;;30.60;29.60;;;;;;;9.59;100.00;102238.81;4978582;28;20466;-39
2023/09/15 03:30:43;;;;;;;33.90;32.80;;;;;;;9.54;100.00;102233.94;4972936;28;20489;-42
2023/09/15 03:33:10;;;;;;;31.57;30.37;;;;;;;9.54;100.00;102233.09;4973231;28;20514;-42
2023/09/15 03:35:38;;;;;;;33.10;31.70;;;;;;;9.54;100.00;102235.75;4973123;28;20490;-39
2023/09/15 03:38:06;;;;;;;31.47;30.27;;;;;;;9.55;100.00;102240.09;4972973;28;20454;-44
2023/09/15 03:40:33;;;;;;;32.27;31.00;;;;;;;9.58;100.00;102237.13;4972401;28;20465;-40
2023/09/15 03:43:01;;;;;;;33.33;32.13;;;;;;;9.51;100.00;102228.91;4973105;28;20494;-40
2023/09/15 03:45:29;;;;;;;31.70;30.50;;;;;;;9.51;100.00;102236.06;4972865;28;20445;-43
2023/09/15 03:47:58;;;;;;;31.23;30.00;;;;;;;9.51;100.00;102226.25;4964902;28;20542;-43
2023/09/15 03:50:26;;;;;;;31.40;30.30;;;;;;;9.52;100.00;102224.44;4972450;28;20823;-45
2023/09/15 03:52:54;;;;;;;32.67;30.93;;;;;;;9.53;100.00;102226.09;4972783;28;20439;-43
2023/09/15 03:55:21;;;;;;;31.47;30.00;;;;;;;9.53;100.00;102232.25;4973004;28;20522;-40
2023/09/15 03:57:49;;;;;;;30.70;29.60;;;;;;;9.55;100.00;102234.78;4972602;28;20465;-39
2023/09/15 04:00:19;;;;;;;30.13;29.13;;;;;;;9.56;100.00;102231.94;4972099;28;20461;-39
2023/09/15 04:02:46;;;;;;;32.83;31.30;;;;;;;9.58;100.00;102235.31;4972758;28;20446;-44
2023/09/15 04:05:15;;;;;;;31.57;30.40;;;;;;;9.60;100.00;102229.81;4972638;28;20819;-39
2023/09/15 04:07:43;;;;;;;31.50;29.70;;;;;;;9.61;100.00;102231.50;4972880;28;20533;-43
2023/09/15 04:10:11;;;;;;;30.53;29.43;;;;;;;9.60;100.00;102233.31;4971788;28;20954;-43
2023/09/15 04:12:42;;;;;;;31.00;29.70;;;;;;;9.65;100.00;102232.84;4972122;28;20879;-46
2023/09/15 04:15:11;;;;;;;32.60;31.47;;;;;;;9.66;100.00;102226.53;4972518;28;20442;-41
2023/09/15 04:17:39;;;;;;;31.27;30.13;;;;;;;9.62;100.00;102228.66;4972277;28;20986;-45
2023/09/15 04:20:09;;;;;;;31.23;29.80;;;;;;;9.61;100.00;102223.50;4971824;28;20486;-41
2023/09/15 04:22:39;;;;;;;31.40;30.30;;;;;;;9.60;100.00;102222.66;4972895;28;20525;-43
2023/09/15 04:25:09;;;;;;;32.53;31.23;;;;;;;9.59;100.00;102222.84;4972734;28;20434;-41
2023/09/15 04:27:37;;;;;;;32.53;31.33;;;;;;;9.62;100.00;102225.16;4979204;28;20822;-43
2023/09/15 04:30:06;;;;;;;33.57;32.17;;;;;;;9.60;100.00;102224.47;4971840;28;20498;-41
2023/09/15 04:32:34;;;;;;;32.90;31.60;;;;;;;9.59;100.00;102220.97;4972204;28;20530;-40
2023/09/15 04:35:02;;;;;;;33.80;32.50;;;;;;;9.57;100.00;102227.44;4972401;28;20445;-44
2023/09/15 04:37:31;;;;;;;33.97;32.57;;;;;;;9.55;100.00;102232.09;4972528;28;20451;-40
2023/09/15 04:40:01;;;;;;;32.80;31.60;;;;;;;9.51;100.00;102236.06;4971676;28;20517;-44
2023/09/15 04:42:28;;;;;;;32.40;31.30;;;;;;;9.50;100.00;102232.56;4972580;28;20441;-40
2023/09/15 04:44:56;;;;;;;32.50;31.30;;;;;;;9.48;100.00;102231.88;4972129;28;20431;-40
2023/09/15 04:47:31;;;;;;;32.10;30.90;;;;;;;9.48;100.00;102236.38;4972354;28;21013;-43
2023/09/15 04:49:59;;;;;;;33.53;32.33;;;;;;;9.49;100.00;102230.06;4971459;28;20435;-41
2023/09/15 04:52:27;;;;;;;33.87;32.40;;;;;;;9.51;100.00;102231.56;4972367;28;20438;-44
2023/09/15 04:54:55;;;;;;;32.47;31.30;;;;;;;9.52;100.00;102232.41;4972431;28;20441;-42
2023/09/15 04:57:25;;;;;;;31.77;30.70;;;;;;;9.51;100.00;102231.56;4972167;28;20860;-41
2023/09/15 04:59:54;;;;;;;32.67;31.37;;;;;;;9.52;100.00;102241.25;4972215;28;20852;-43
2023/09/15 05:02:23;;;;;;;33.17;31.87;;;;;;;9.53;100.00;102242.09;4971961;28;20903;-42
2023/09/15 05:04:52;;;;;;;33.60;32.50;;;;;;;9.55;100.00;102234.78;4972235;28;20438;-42
2023/09/15 05:07:20;;;;;;;31.23;29.90;;;;;;;9.57;100.00;102236.28;4971909;28;20455;-40
2023/09/15 05:09:48;;;;;;;31.47;30.30;;;;;;;9.59;100.00;102236.97;4969833;28;20530;-41
2023/09/15 05:12:16;;;;;;;30.27;29.27;;;;;;;9.66;100.00;102245.19;4965877;28;20458;-42
2023/09/15 05:14:45;;;;;;;30.77;29.53;;;;;;;9.68;100.00;102243.19;4972154;28;20434;-43
2023/09/15 05:17:13;;;;;;;31.37;29.97;;;;;;;9.73;100.00;102246.25;4971857;28;20506;-42
2023/09/15 05:19:41;;;;;;;30.77;29.53;;;;;;;9.80;100.00;102247.28;4971671;28;20435;-43
2023/09/15 05:22:08;;;;;;;29.37;28.17;;;;;;;9.87;100.00;102243.84;4971429;28;20474;-43
2023/09/15 05:24:36;;;;;;;29.43;28.23;;;;;;;9.96;100.00;102245.59;4973075;28;20525;-40
2023/09/15 05:27:04;;;;;;;27.77;26.50;;;;;;;10.03;100.00;102243.94;4972547;28;20463;-46
2023/09/15 05:29:33;;;;;;;29.70;28.50;;;;;;;10.13;100.00;102246.56;4974239;28;20489;-40
2023/09/15 05:32:03;;;;;;;28.97;27.90;;;;;;;10.22;100.00;102253.59;4964849;28;20521;-41
2023/09/15 05:34:31;;;;;;;27.13;26.13;;;;;;;10.32;100.00;102258.84;4972657;28;20497;-42
2023/09/15 05:36:59;;;;;;;27.60;26.30;;;;;;;10.39;100.00;102263.38;4973340;28;20529;-42
2023/09/15 05:39:27;;;;;;;25.63;24.63;;;;;;;10.72;100.00;102260.88;4973875;28;20474;-41
2023/09/15 05:41:55;;;;;;;23.80;22.93;;;;;;;11.67;100.00;102266.59;4964844;28;20482;-40
2023/09/15 05:44:23;;;;;;;22.10;21.10;;;;;;;12.70;100.00;102271.94;4973801;28;20441;-44
2023/09/15 05:46:52;;;;;;;23.13;22.10;;;;;;;13.55;100.00;102264.81;4965414;28;20463;-42
2023/09/15 05:49:21;;;;;;;20.80;20.00;;;;;;;14.32;100.00;102252.00;4972822;28;20439;-42
2023/09/15 05:51:50;;;;;;;20.43;19.63;;;;;;;15.03;100.00;102245.94;4967534;28;20465;-42
2023/09/15 05:54:17;;;;;;;18.50;17.53;;;;;;;15.71;100.00;102241.91;4968116;28;20439;-45
2023/09/15 05:56:45;;;;;;;17.00;16.40;;;;;;;16.35;100.00;102232.66;4968592;28;20460;-41
2023/09/15 05:59:14;;;;;;;17.37;16.53;;;;;;;16.93;100.00;102223.22;4973502;28;20585;-38
2023/09/15 06:01:46;;;;;;;16.03;15.37;;;;;;;17.56;100.00;102221.09;4967206;28;20480;-40
2023/09/15 06:04:15;;;;;;;13.53;12.83;;;;;;;18.18;100.00;102215.22;4968075;28;20521;-40
2023/09/15 06:06:44;;;;;;;14.00;13.50;;;;;;;18.68;100.00;102211.75;4967392;28;20443;-39
2023/09/15 06:09:12;;;;;;;11.50;10.87;;;;;;;19.31;100.00;102207.25;4972549;28;20431;-42
2023/09/15 06:11:39;;;;;;;10.43;9.47;;;;;;;19.95;100.00;102208.81;4964541;28;20486;-43
2023/09/15 06:14:07;;;;;;;8.93;8.43;;;;;;;20.33;100.00;102203.25;4971613;28;20517;-38
2023/09/15 06:16:36;;;;;;;7.27;6.97;;;;;;;20.71;100.00;102197.56;4967862;28;20442;-39
2023/09/15 06:19:04;;;;;;;8.10;7.50;;;;;;;21.03;100.00;102199.00;4964546;28;20466;-39
2023/09/15 06:21:33;;;;;;;6.83;6.60;;;;;;;21.46;100.00;102202.34;4964882;28;20475;-41
2023/09/15 06:24:03;;;;;;;7.27;6.90;;;;;;;21.66;100.00;102204.72;4970743;28;20524;-45
2023/09/15 06:26:32;;;;;;;6.67;6.20;;;;;;;22.07;97.54;102216.59;4969256;28;20442;-39
2023/09/15 06:29:00;;;;;;;6.57;6.20;;;;;;;22.43;97.10;102214.41;4971352;28;20430;-40
2023/09/15 06:31:28;;;;;;;7.00;6.60;;;;;;;22.44;96.50;102213.34;4965875;28;20463;-39
2023/09/15 06:33:56;;;;;;;5.77;5.47;;;;;;;22.42;91.13;102220.09;4970298;28;20435;-39
2023/09/15 06:36:26;;;;;;;5.30;5.10;;;;;;;22.15;89.75;102229.81;4970021;28;20458;-43
2023/09/15 06:38:54;;;;;;;5.10;4.90;;;;;;;21.84;88.50;102218.22;4971230;28;20533;-40
2023/09/15 06:41:23;;;;;;;5.87;5.57;;;;;;;21.36;90.54;102221.09;4970352;28;20482;-42
2023/09/15 06:43:50;;;;;;;6.03;5.73;;;;;;;20.91;89.45;102219.81;4971986;28;20545;-44
2023/09/15 06:46:21;;;;;;;5.97;5.63;;;;;;;20.59;95.10;102215.66;4970477;28;20533;-41
2023/09/15 06:48:49;;;;;;;5.90;5.70;;;;;;;20.26;96.99;102211.47;4972296;28;20435;-40
2023/09/15 06:51:17;;;;;;;6.70;6.17;;;;;;;20.12;100.00;102214.50;4973476;28;20497;-38
2023/09/15 06:53:45;;;;;;;7.00;6.70;;;;;;;19.89;100.00;102213.25;4973680;28;20442;-39
2023/09/15 06:56:13;;;;;;;6.60;6.40;;;;;;;20.28;100.00;102208.53;4973170;28;20443;-41
2023/09/15 06:58:42;;;;;;;6.57;6.33;;;;;;;20.69;100.00;102205.94;4973438;28;20489;-41
2023/09/15 07:01:09;;;;;;;6.60;6.30;;;;;;;21.02;100.00;102210.94;4973019;28;20466;-41
2023/09/15 07:03:37;;;;;;;6.40;6.00;;;;;;;21.21;96.47;102198.16;4973561;28;20449;-39
2023/09/15 07:06:06;;;;;;;6.13;5.90;;;;;;;21.27;95.31;102199.94;4973445;28;20439;-46
2023/09/15 07:08:33;;;;;;;5.90;5.50;;;;;;;21.28;94.22;102205.16;4973105;28;20958;-40
2023/09/15 07:11:01;;;;;;;6.17;5.87;;;;;;;21.29;96.72;102203.28;4973107;28;20552;-41
2023/09/15 07:13:29;;;;;;;5.30;5.10;;;;;;;21.18;95.65;102202.16;4973469;28;20435;-41
2023/09/15 07:15:58;;;;;;;7.07;6.40;;;;;;;20.80;87.91;102205.19;4973086;28;20802;-38
2023/09/15 07:18:25;;;;;;;5.37;5.17;;;;;;;20.69;96.66;102197.81;4972948;28;20454;-39
2023/09/15 07:20:53;;;;;;;5.93;5.63;;;;;;;20.52;97.24;102199.47;4970382;28;20484;-42
2023/09/15 07:23:21;;;;;;;6.07;5.33;;;;;;;20.06;96.54;102202.69;4972992;28;20539;-44
2023/09/15 07:25:48;;;;;;;6.07;5.67;;;;;;;19.95;100.00;102205.31;4973861;28;20473;-39
2023/09/15 07:28:16;;;;;;;6.27;5.77;;;;;;;19.87;100.00;102201.81;4976625;28;20460;-39
2023/09/15 07:30:44;;;;;;;5.77;5.33;;;;;;;19.90;100.00;102195.13;4972566;28;20458;-39
2023/09/15 07:33:14;;;;;;;6.60;6.30;;;;;;;19.87;100.00;102201.81;4972819;28;20434;-39
2023/09/15 07:35:41;;;;;;;5.80;5.50;;;;;;;19.95;100.00;102197.97;4972841;28;20435;-42
2023/09/15 07:38:09;;;;;;;6.07;5.50;;;;;;;20.23;100.00;102194.78;4970005;28;20490;-42
2023/09/15 07:40:37;;;;;;;8.43;6.30;;;;;;;20.48;100.00;102195.59;4972143;28;20990;-42
2023/09/15 07:43:05;;;;;;;5.60;5.30;;;;;;;20.74;100.00;102191.69;4972738;28;20471;-39
2023/09/15 07:45:32;;;;;;;5.80;5.37;;;;;;;21.10;100.00;102199.78;4972814;28;20513;-39
2023/09/15 07:48:00;;;;;;;5.90;5.40;;;;;;;21.29;100.00;102190.53;4971591;28;20553;-40
2023/09/15 07:50:33;;;;;;;5.50;5.20;;;;;;;21.54;99.89;102195.75;4972063;28;20458;-40
2023/09/15 07:53:01;;;;;;;6.70;6.10;;;;;;;21.60;97.57;102188.56;4971851;28;20509;-40
2023/09/15 07:55:29;;;;;;;6.17;5.87;;;;;;;21.64;95.71;102201.44;4972534;28;20469;-40
2023/09/15 07:57:57;;;;;;;5.87;5.40;;;;;;;21.61;95.15;102195.66;4972314;28;20764;-39
2023/09/15 08:00:25;;;;;;;6.67;5.97;;;;;;;21.50;94.63;102194.59;4971856;28;20513;-40
2023/09/15 08:02:53;;;;;;;5.43;4.90;;;;;;;21.35;93.62;102189.59;4972123;28;20541;-41
2023/09/15 08:05:21;;;;;;;5.27;4.97;;;;;;;21.23;94.20;102198.75;4969800;28;20445;-40
2023/09/15 08:07:50;;;;;;;4.87;4.67;;;;;;;21.17;96.60;102189.69;4972623;28;20509;-40
2023/09/15 08:10:19;;;;;;;5.57;5.27;;;;;;;21.03;95.78;102196.28;4971736;28;20501;-40
2023/09/15 08:12:48;;;;;;;5.23;5.03;;;;;;;20.72;93.47;102196.53;4972476;28;20434;-39
2023/09/15 08:15:16;;;;;;;5.47;5.13;;;;;;;20.51;99.82;102195.13;4972105;28;20435;-40
2023/09/15 08:17:44;;;;;;;5.03;4.73;;;;;;;20.50;98.35;102192.63;4972202;28;20878;-44
2023/09/15 08:20:13;;;;;;;4.70;4.50;;;;;;;20.49;98.39;102182.88;4969194;28;20469;-39
2023/09/15 08:22:41;;;;;;;5.70;4.77;;;;;;;20.40;97.31;102183.16;4972416;28;20562;-41
2023/09/15 08:25:11;;;;;;;5.23;4.83;;;;;;;20.43;98.64;102181.88;4972333;28;20445;-39
2023/09/15 08:27:39;;;;;;;4.57;4.17;;;;;;;20.57;98.60;102188.81;4972307;28;20459;-40
2023/09/15 08:30:08;;;;;;;7.03;5.53;;;;;;;20.64;98.07;102178.69;4971616;28;20457;-41
2023/09/15 08:32:36;;;;;;;4.80;4.50;;;;;;;20.60;97.95;102182.09;4972100;28;20504;-41
2023/09/15 08:35:05;;;;;;;5.10;4.80;;;;;;;20.49;96.50;102182.88;4972231;28;20438;-42
2023/09/15 08:37:33;;;;;;;4.77;4.47;;;;;;;20.36;97.57;102187.38;4971925;28;20454;-42
2023/09/15 08:40:01;;;;;;;5.17;4.87;;;;;;;20.45;100.00;102184.38;4971050;28;20489;-41
2023/09/15 08:42:30;;;;;;;4.57;4.27;;;;;;;20.57;99.42;102187.97;4971898;28;20474;-40
2023/09/15 08:44:58;;;;;;;4.63;4.23;;;;;;;20.52;94.08;102185.94;4972276;28;20493;-39
2023/09/15 08:47:31;;;;;;;4.80;4.40;;;;;;;20.52;96.37;102185.94;4971877;28;20958;-41
2023/09/15 08:50:01;;;;;;;5.10;4.67;;;;;;;20.51;96.41;102189.72;4971147;28;20470;-39
2023/09/15 08:52:31;;;;;;;5.10;4.70;;;;;;;20.66;94.39;102192.84;4972239;28;20795;-39
2023/09/15 08:55:01;;;;;;;4.73;4.07;;;;;;;20.73;90.37;102181.91;4971821;28;20437;-40
2023/09/15 08:57:31;;;;;;;4.83;4.10;;;;;;;20.40;89.51;102185.03;4972095;28;20484;-41
2023/09/15 09:00:00;;;;;;;4.50;3.87;;;;;;;20.48;91.51;102184.75;4975154;28;20485;-39
2023/09/15 09:02:28;;;;;;;4.13;3.83;;;;;;;20.69;92.69;102186.16;4975714;28;20811;-42
2023/09/15 09:04:56;;;;;;;3.60;3.40;;;;;;;20.88;91.98;102179.63;4975658;28;20514;-42
2023/09/15 09:07:24;;;;;;;4.00;3.70;;;;;;;21.02;90.16;102175.69;4975284;28;20454;-39
2023/09/15 09:09:53;;;;;;;4.57;4.30;;;;;;;21.16;89.16;102179.03;4975416;28;20440;-42
2023/09/15 09:12:21;;;;;;;4.20;3.80;;;;;;;21.23;87.02;102180.59;4975239;28;20505;-39
2023/09/15 09:14:55;;;;;;;5.03;4.43;;;;;;;21.26;87.60;102171.16;4975378;28;20517;-40
2023/09/15 09:17:23;;;;;;;4.43;4.13;;;;;;;21.28;86.78;102172.59;4974359;28;20472;-40
2023/09/15 09:19:51;;;;;;;5.07;4.60;;;;;;;21.37;85.51;102175.78;4974916;28;20461;-44
2023/09/15 09:22:19;;;;;;;7.23;4.20;;;;;;;21.38;86.55;102172.84;4974856;28;20486;-40
2023/09/15 09:24:54;;;;;;;7.73;5.50;;;;;;;21.28;84.63;102174.47;4975385;28;20501;-40
2023/09/15 09:27:22;;;;;;;10.13;4.27;;;;;;;21.18;88.71;102176.91;4975271;28;20508;-42
2023/09/15 09:29:54;;;;;;;4.67;4.37;;;;;;;21.30;87.35;102172.34;4975082;28;20866;-40
2023/09/15 09:32:22;;;;;;;5.23;4.73;;;;;;;21.41;87.32;102175.06;4974822;28;20450;-42
2023/09/15 09:34:50;;;;;;;3.90;3.67;;;;;;;21.50;87.34;102176.38;4975158;28;20433;-39
2023/09/15 09:37:18;;;;;;;5.00;4.63;;;;;;;21.48;81.12;102175.81;4975078;28;20462;-41
2023/09/15 09:39:48;;;;;;;4.20;3.90;;;;;;;21.40;82.09;102170.72;4974926;28;20438;-44
2023/09/15 09:42:16;;;;;;;4.83;4.50;;;;;;;20.90;86.11;102172.09;4967285;28;20455;-39
2023/09/15 09:44:44;;;;;;;4.50;4.10;;;;;;;20.77;85.18;102166.84;4974750;28;20474;-40
2023/09/15 09:47:14;;;;;;;5.00;4.40;;;;;;;20.90;86.54;102167.50;4974927;28;20798;-40
2023/09/15 09:49:41;;;;;;;4.37;4.13;;;;;;;21.02;86.10;102167.53;4974611;28;20431;-41
2023/09/15 09:52:09;;;;;;;5.40;4.20;;;;;;;21.27;85.89;102165.50;4974461;28;20488;-39
2023/09/15 09:54:37;;;;;;;4.87;3.50;;;;;;;21.28;84.41;102156.31;4974681;28;20930;-40
2023/09/15 09:57:05;;;;;;;4.50;4.10;;;;;;;21.30;85.03;102156.88;4974486;28;20486;-41
2023/09/15 09:59:36;;;;;;;4.63;4.30;;;;;;;21.46;82.65;102166.25;4974315;28;20435;-42
2023/09/15 10:02:05;;;;;;;5.17;3.97;;;;;;;21.56;81.87;102160.25;4974236;28;20486;-40
2023/09/15 10:04:34;;;;;;;5.30;4.50;;;;;;;21.27;83.10;102159.25;4974613;28;20476;-39
2023/09/15 10:07:03;;;;;;;4.13;3.83;;;;;;;21.43;84.26;102153.13;4974365;28;20506;-42
2023/09/15 10:09:31;;;;;;;5.43;4.50;;;;;;;21.36;81.89;102155.97;4973711;28;20430;-40
2023/09/15 10:12:00;;;;;;;4.70;4.30;;;;;;;21.57;81.70;102151.84;4973714;28;20470;-41
2023/09/15 10:14:30;;;;;;;5.57;5.13;;;;;;;21.62;82.85;102149.28;4974686;28;20431;-40
2023/09/15 10:16:59;;;;;;;5.20;4.80;;;;;;;21.80;82.33;102149.13;4974210;28;20474;-41
2023/09/15 10:19:27;;;;;;;4.67;3.40;;;;;;;21.78;79.04;102145.84;4974135;28;20934;-42
2023/09/15 10:21:57;;;;;;;4.67;3.73;;;;;;;21.71;80.97;102141.59;4973887;28;20564;-43
2023/09/15 10:24:26;;;;;;;6.17;4.90;;;;;;;21.91;75.66;102139.38;4974315;28;20548;-39
2023/09/15 10:26:54;;;;;;;4.40;3.80;;;;;;;21.60;76.80;102131.53;4974158;28;20537;-39
2023/09/15 10:29:22;;;;;;;4.50;3.87;;;;;;;21.71;79.35;102147.84;4974247;28;20541;-42
2023/09/15 10:31:52;;;;;;;4.00;3.70;;;;;;;22.07;78.14;102137.81;4973831;28;20459;-43
2023/09/15 10:34:21;;;;;;;5.33;4.00;;;;;;;21.90;78.73;102140.41;4972101;28;20493;-43
2023/09/15 10:36:49;;;;;;;9.67;4.53;;;;;;;22.13;77.03;102145.00;4973953;28;20454;-43
2023/09/15 10:39:18;;;;;;;5.17;3.70;;;;;;;22.33;77.41;102145.44;4972876;28;21009;-40
2023/09/15 10:41:46;;;;;;;4.20;3.77;;;;;;;22.32;70.41;102144.59;4973482;28;20486;-42
2023/09/15 10:44:14;;;;;;;14.80;5.00;;;;;;;22.49;73.48;102137.34;4973386;28;20502;-41
2023/09/15 10:46:43;;;;;;;4.60;4.03;;;;;;;22.67;72.01;102138.25;4973699;28;20941;-42
2023/09/15 10:49:18;;;;;;;4.03;3.73;;;;;;;22.47;72.41;102135.94;4973401;28;20449;-45
2023/09/15 10:51:57;;;;;;;6.67;4.40;;;;;;;22.71;72.18;102128.53;4973263;28;20461;-39
2023/09/15 10:54:30;;;;;;;10.77;4.77;;;;;;;22.60;73.61;102122.88;4968045;28;20522;-44
2023/09/15 10:56:59;;;;;;;5.77;4.47;;;;;;;23.06;72.54;102123.72;4969121;28;20462;-42
2023/09/15 10:59:28;;;;;;;7.03;4.13;;;;;;;22.73;71.42;102120.97;4972134;28;20430;-42
2023/09/15 11:01:57;;;;;;;5.47;4.33;;;;;;;22.70;70.76;102124.19;4971053;28;20521;-39
2023/09/15 11:04:25;;;;;;;4.43;4.13;;;;;;;22.59;70.21;102121.22;4972627;28;20568;-43
2023/09/15 11:06:54;;;;;;;4.20;3.90;;;;;;;22.81;70.61;102113.25;4971350;28;20462;-43
2023/09/15 11:09:23;;;;;;;4.00;3.70;;;;;;;22.90;67.31;102114.50;4972843;28;20496;-41
2023/09/15 11:11:53;;;;;;;5.50;4.73;;;;;;;22.70;69.96;102107.88;4969504;28;20462;-40
2023/09/15 11:14:23;;;;;;;8.33;4.50;;;;;;;22.91;69.70;102096.25;4973323;28;20426;-39
2023/09/15 11:16:52;;;;;;;4.57;4.27;;;;;;;22.65;68.72;102094.16;4973390;28;20553;-40
2023/09/15 11:19:23;;;;;;;4.50;3.77;;;;;;;22.65;69.79;102092.25;4973108;28;20914;-42
2023/09/15 11:21:51;;;;;;;4.43;3.30;;;;;;;23.25;70.67;102089.78;4972748;28;20469;-42